Time;durP1;ratioP1;P1;durP2;ratioP2;P2;SDS_P1;SDS_P2;PMS_P1;PMS_P2;Temp;Humidity;BMP_temperature;BMP_pressure;BME280_temperature;BME280_humidity;BME280_pressure;Samples;Min_cycle;Max_cycle;Signal;HPM_P1;HPM_P2
2023/07/11 00:01:22;;;;;;;8.63;2.08;;;15.20;99.90;;;;;;5030386;28;20056;-60
2023/07/11 00:03:50;;;;;;;11.02;2.38;;;15.20;99.90;;;;;;5034961;28;20416;-59
2023/07/11 00:06:20;;;;;;;10.73;2.60;;;15.20;99.90;;;;;;5048033;28;20565;-59
2023/07/11 00:08:47;;;;;;;15.60;2.90;;;15.20;99.90;;;;;;5050043;28;20056;-58
2023/07/11 00:11:17;;;;;;;10.77;3.20;;;15.10;99.90;;;;;;5028191;28;20313;-59
2023/07/11 00:13:45;;;;;;;9.43;2.50;;;15.20;99.90;;;;;;5036365;28;20776;-59
2023/07/11 00:16:14;;;;;;;13.57;2.70;;;15.20;99.90;;;;;;5050034;28;20045;-59
2023/07/11 00:18:43;;;;;;;8.03;2.30;;;15.20;99.90;;;;;;5031964;28;20045;-59
2023/07/11 00:21:11;;;;;;;11.40;3.22;;;15.20;99.90;;;;;;5043145;28;20052;-59
2023/07/11 00:23:40;;;;;;;9.80;2.88;;;15.20;99.90;;;;;;5039414;28;20049;-59
2023/07/11 00:26:08;;;;;;;7.65;2.53;;;15.10;99.90;;;;;;5031004;28;20041;-59
2023/07/11 00:28:36;;;;;;;8.75;2.58;;;15.20;99.90;;;;;;5046217;28;20045;-59
2023/07/11 00:31:03;;;;;;;9.07;2.75;;;15.10;99.90;;;;;;5045268;28;20041;-59
2023/07/11 00:33:31;;;;;;;7.68;2.88;;;15.10;99.90;;;;;;5054272;28;20043;-59
2023/07/11 00:35:59;;;;;;;9.65;3.03;;;15.10;99.90;;;;;;5052902;28;20041;-60
2023/07/11 00:38:27;;;;;;;9.90;3.50;;;15.10;99.90;;;;;;5043304;28;20045;-59
2023/07/11 00:40:57;;;;;;;14.27;2.90;;;15.10;99.90;;;;;;5039471;28;20045;-59
2023/07/11 00:43:24;;;;;;;6.03;2.42;;;15.20;99.90;;;;;;5034427;28;20037;-58
2023/07/11 00:46:14;;;;;;;10.27;2.53;;;15.20;99.90;;;;;;5067259;28;20044;-58
2023/07/11 00:48:59;;;;;;;;;;;15.20;99.90;;;;;;5057961;28;20041;-59
2023/07/11 00:51:50;;;;;;;9.50;3.55;;;15.20;99.90;;;;;;5044356;28;19921;-60
2023/07/11 00:54:21;;;;;;;6.88;2.67;;;15.20;99.90;;;;;;5049003;28;20084;-59
2023/07/11 00:56:49;;;;;;;5.80;2.72;;;15.20;99.90;;;;;;5038476;28;20048;-59
2023/07/11 00:59:21;;;;;;;12.60;3.00;;;15.20;99.90;;;;;;5048889;28;20053;-59
2023/07/11 01:02:05;;;;;;;8.32;2.85;;;15.20;99.90;;;;;;5041951;28;20069;-59
2023/07/11 01:04:35;;;;;;;12.05;3.17;;;15.10;99.90;;;;;;5022933;28;20049;-59
2023/07/11 01:07:04;;;;;;;13.05;2.65;;;15.10;99.90;;;;;;5035736;28;20049;-59
2023/07/11 01:09:32;;;;;;;10.10;3.13;;;15.10;99.90;;;;;;5024509;28;20583;-60
2023/07/11 01:12:06;;;;;;;11.15;2.85;;;15.10;99.90;;;;;;5041272;28;20312;-59
2023/07/11 01:14:35;;;;;;;13.20;2.88;;;15.10;99.90;;;;;;5048609;28;20040;-59
2023/07/11 01:17:27;;;;;;;7.78;2.53;;;15.10;99.90;;;;;;5065903;28;20053;-59
2023/07/11 01:19:58;;;;;;;7.55;2.55;;;15.20;99.90;;;;;;5044496;28;20033;-60
2023/07/11 01:22:28;;;;;;;8.95;3.03;;;15.20;99.90;;;;;;5031831;28;20049;-59
2023/07/11 01:25:01;;;;;;;;;;;15.10;99.90;;;;;;5042974;28;20049;-58
2023/07/11 01:27:30;;;;;;;9.00;2.38;;;15.20;99.90;;;;;;5042611;28;19925;-60
2023/07/11 01:29:58;;;;;;;9.45;2.83;;;15.10;99.90;;;;;;5029950;28;20515;-59
2023/07/11 01:32:26;;;;;;;12.98;2.95;;;15.20;99.90;;;;;;5027539;28;20069;-58
2023/07/11 01:34:55;;;;;;;10.43;3.75;;;15.20;99.90;;;;;;5028373;28;20049;-59
2023/07/11 01:37:23;;;;;;;9.77;3.25;;;15.20;99.90;;;;;;5039941;28;20411;-60
2023/07/11 01:39:52;;;;;;;11.80;3.90;;;15.20;99.90;;;;;;5046670;28;20048;-59
2023/07/11 01:42:20;;;;;;;10.75;3.85;;;15.20;99.90;;;;;;5041646;28;20049;-60
2023/07/11 01:44:48;;;;;;;14.85;4.80;;;15.20;99.90;;;;;;5055203;28;20378;-59
2023/07/11 01:47:16;;;;;;;11.57;4.13;;;15.20;99.90;;;;;;5031831;28;20045;-59
2023/07/11 01:49:44;;;;;;;13.25;3.92;;;15.20;99.90;;;;;;5038764;28;20033;-60
2023/07/11 01:52:15;;;;;;;11.52;4.25;;;15.30;99.90;;;;;;5043116;28;20047;-59
2023/07/11 01:54:43;;;;;;;8.90;4.10;;;15.30;99.90;;;;;;5031423;28;20056;-59
2023/07/11 01:57:11;;;;;;;8.02;3.60;;;15.30;99.90;;;;;;5029032;28;20056;-59
2023/07/11 01:59:38;;;;;;;15.13;4.65;;;15.30;99.90;;;;;;5020556;28;20061;-59
2023/07/11 02:02:07;;;;;;;16.10;4.88;;;15.20;99.90;;;;;;5030329;28;20041;-59
2023/07/11 02:04:36;;;;;;;13.35;4.82;;;15.20;99.90;;;;;;5038445;28;20070;-59
2023/07/11 02:07:05;;;;;;;9.38;4.22;;;15.20;99.90;;;;;;5033795;28;20079;-60
2023/07/11 02:09:34;;;;;;;9.88;4.32;;;15.20;99.90;;;;;;5033535;28;20052;-59
2023/07/11 02:12:02;;;;;;;11.48;4.80;;;15.20;99.90;;;;;;5047283;28;20416;-59
2023/07/11 02:14:29;;;;;;;9.57;4.00;;;15.20;99.90;;;;;;5051897;28;20065;-59
2023/07/11 02:16:57;;;;;;;6.35;3.75;;;15.20;99.90;;;;;;5039176;28;20040;-60
2023/07/11 02:19:25;;;;;;;9.95;4.15;;;15.20;99.90;;;;;;5051570;28;20053;-60
2023/07/11 02:21:52;;;;;;;9.70;3.58;;;15.20;99.90;;;;;;5048855;28;20052;-59
2023/07/11 02:24:20;;;;;;;6.13;3.35;;;15.20;99.90;;;;;;5034835;28;20060;-62
2023/07/11 02:26:48;;;;;;;8.10;3.90;;;15.20;99.90;;;;;;5049962;28;20049;-63
2023/07/11 02:29:16;;;;;;;12.15;4.47;;;15.20;99.90;;;;;;5035982;28;20061;-65
2023/07/11 02:31:43;;;;;;;11.90;4.07;;;15.20;99.90;;;;;;5042011;28;20044;-64
2023/07/11 02:34:11;;;;;;;9.30;3.67;;;15.10;99.90;;;;;;5051298;28;20059;-63
2023/07/11 02:36:38;;;;;;;5.40;2.80;;;15.10;99.90;;;;;;5039981;28;20053;-62
2023/07/11 02:39:06;;;;;;;7.47;3.05;;;15.10;99.90;;;;;;5050512;28;20044;-61
2023/07/11 02:41:34;;;;;;;6.32;2.53;;;15.10;99.90;;;;;;5045599;28;20045;-61
2023/07/11 02:44:01;;;;;;;2.80;2.45;;;15.10;99.90;;;;;;5043259;28;20041;-61
2023/07/11 02:46:29;;;;;;;4.88;2.70;;;15.10;99.90;;;;;;5047954;28;20045;-61
2023/07/11 02:48:57;;;;;;;3.75;2.38;;;15.10;99.90;;;;;;5031440;28;20060;-62
2023/07/11 02:51:25;;;;;;;3.95;2.05;;;15.10;99.90;;;;;;5050517;28;20068;-63
2023/07/11 02:53:53;;;;;;;3.50;2.15;;;15.10;99.90;;;;;;5049454;28;20068;-61
2023/07/11 02:56:21;;;;;;;2.42;1.70;;;15.10;99.90;;;;;;5046550;28;20048;-62
2023/07/11 02:58:51;;;;;;;6.18;2.53;;;15.00;99.90;;;;;;5054165;28;20500;-61
2023/07/11 03:01:19;;;;;;;2.30;2.00;;;15.00;99.90;;;;;;5053399;28;20049;-59
2023/07/11 03:03:47;;;;;;;3.20;2.47;;;15.10;99.90;;;;;;5043219;28;20045;-60
2023/07/11 03:06:18;;;;;;;3.92;2.47;;;15.10;99.90;;;;;;5047631;28;20405;-60
2023/07/11 03:08:45;;;;;;;2.85;2.42;;;15.00;99.90;;;;;;5051346;28;20048;-60
2023/07/11 03:11:13;;;;;;;4.95;3.15;;;15.00;99.90;;;;;;5034624;28;20042;-60
2023/07/11 03:13:42;;;;;;;7.35;3.17;;;15.00;99.90;;;;;;5049681;28;20049;-59
2023/07/11 03:16:10;;;;;;;4.28;2.95;;;15.00;99.90;;;;;;5045831;28;20045;-59
2023/07/11 03:18:37;;;;;;;3.90;2.72;;;15.00;99.90;;;;;;5033984;28;20042;-59
2023/07/11 03:21:05;;;;;;;4.35;2.90;;;15.10;99.90;;;;;;5034598;28;20041;-59
2023/07/11 03:23:33;;;;;;;9.70;3.10;;;15.00;99.90;;;;;;5034623;28;20056;-59
2023/07/11 03:26:00;;;;;;;4.43;2.70;;;15.00;99.90;;;;;;5042410;28;20045;-59
2023/07/11 03:28:28;;;;;;;3.60;2.83;;;15.00;99.90;;;;;;5041697;28;20060;-61
2023/07/11 03:30:56;;;;;;;4.88;3.13;;;15.00;99.90;;;;;;5049122;28;20049;-60
2023/07/11 03:33:23;;;;;;;5.38;3.38;;;15.00;99.90;;;;;;5034633;28;20052;-61
2023/07/11 03:35:51;;;;;;;7.43;3.40;;;14.90;99.90;;;;;;5043148;28;20049;-59
2023/07/11 03:38:19;;;;;;;3.70;2.90;;;14.90;99.90;;;;;;5036026;28;20527;-59
2023/07/11 03:40:47;;;;;;;5.50;3.22;;;14.90;99.90;;;;;;5036199;28;20042;-59
2023/07/11 03:43:15;;;;;;;4.85;3.33;;;14.90;99.90;;;;;;5054161;28;20049;-60
2023/07/11 03:45:48;;;;;;;4.85;3.47;;;14.80;99.90;;;;;;5070726;28;20044;-60
2023/07/11 03:48:31;;;;;;;5.82;3.55;;;14.90;99.90;;;;;;5050545;28;20476;-59
2023/07/11 03:50:59;;;;;;;5.60;3.45;;;14.90;99.90;;;;;;5043617;28;20053;-60
2023/07/11 03:53:26;;;;;;;3.95;2.88;;;14.90;99.90;;;;;;5033856;28;20064;-60
2023/07/11 03:55:54;;;;;;;5.93;3.00;;;15.00;99.90;;;;;;5046647;28;20049;-60
2023/07/11 03:58:23;;;;;;;4.18;2.85;;;15.00;99.90;;;;;;5045294;28;20492;-60
2023/07/11 04:00:53;;;;;;;4.60;3.40;;;15.00;99.90;;;;;;5051788;28;20052;-60
2023/07/11 04:03:21;;;;;;;7.18;2.85;;;15.00;99.90;;;;;;5017869;28;20395;-60
2023/07/11 04:05:50;;;;;;;4.55;3.22;;;15.00;99.90;;;;;;5034747;28;20046;-59
2023/07/11 04:08:18;;;;;;;4.72;3.20;;;15.10;99.90;;;;;;5036405;28;20516;-60
2023/07/11 04:10:45;;;;;;;4.28;3.08;;;15.10;99.90;;;;;;5044463;28;20053;-59
2023/07/11 04:13:13;;;;;;;4.38;2.80;;;15.10;99.90;;;;;;5053665;28;20053;-59
2023/07/11 04:15:40;;;;;;;6.13;2.70;;;15.10;99.90;;;;;;5040998;28;20053;-59
2023/07/11 04:18:08;;;;;;;5.45;2.65;;;15.20;99.90;;;;;;5053415;28;20040;-60
2023/07/11 04:20:36;;;;;;;5.50;2.58;;;15.10;99.90;;;;;;5049922;28;20041;-60
2023/07/11 04:23:03;;;;;;;6.53;3.20;;;15.10;99.90;;;;;;5033588;28;20041;-59
2023/07/11 04:25:31;;;;;;;3.42;2.30;;;15.10;99.90;;;;;;5032219;28;20045;-60
2023/07/11 04:27:58;;;;;;;3.90;1.83;;;15.10;99.90;;;;;;5048440;28;20043;-60
2023/07/11 04:30:26;;;;;;;2.55;2.03;;;15.10;99.90;;;;;;5071414;28;20400;-59
2023/07/11 04:32:53;;;;;;;3.90;2.47;;;15.10;99.90;;;;;;5057993;28;20048;-59
2023/07/11 04:35:22;;;;;;;4.93;2.15;;;15.10;99.90;;;;;;5053453;28;20053;-59
2023/07/11 04:37:50;;;;;;;7.88;2.08;;;15.10;99.90;;;;;;5047999;28;20044;-60
2023/07/11 04:40:18;;;;;;;2.67;1.90;;;15.10;99.90;;;;;;5031694;28;20049;-60
2023/07/11 04:42:45;;;;;;;3.40;2.10;;;15.10;99.90;;;;;;5032879;28;20429;-60
2023/07/11 04:45:13;;;;;;;4.47;1.85;;;15.10;99.90;;;;;;5052537;28;20045;-61
2023/07/11 04:47:40;;;;;;;5.57;1.55;;;15.10;99.90;;;;;;5039712;28;20045;-61
2023/07/11 04:50:09;;;;;;;4.07;2.17;;;15.00;99.90;;;;;;5028722;28;20052;-61
2023/07/11 04:52:37;;;;;;;3.92;1.20;;;15.10;99.90;;;;;;5029453;28;20041;-60
2023/07/11 04:55:05;;;;;;;7.35;1.70;;;15.10;99.90;;;;;;5028960;28;20053;-60
2023/07/11 04:57:33;;;;;;;5.72;1.40;;;15.10;99.90;;;;;;5031548;28;20045;-60
2023/07/11 05:00:00;;;;;;;3.72;1.75;;;15.10;99.90;;;;;;5041280;28;20064;-60
2023/07/11 05:02:28;;;;;;;8.50;1.17;;;15.10;99.90;;;;;;5026329;28;20045;-61
2023/07/11 05:04:56;;;;;;;4.00;1.00;;;15.10;99.90;;;;;;5025768;28;20046;-61
2023/07/11 05:07:24;;;;;;;4.35;1.30;;;15.10;99.90;;;;;;5037968;28;20135;-62
2023/07/11 05:09:52;;;;;;;3.53;1.15;;;15.10;99.90;;;;;;5049148;28;20541;-60
2023/07/11 05:12:26;;;;;;;8.82;1.50;;;15.10;99.90;;;;;;5041970;28;20049;-59
2023/07/11 05:14:54;;;;;;;5.25;1.25;;;15.10;99.90;;;;;;5058770;28;20054;-62
2023/07/11 05:17:21;;;;;;;4.47;1.08;;;15.10;99.90;;;;;;5030612;28;20041;-61
2023/07/11 05:19:49;;;;;;;3.55;1.30;;;15.10;99.90;;;;;;5028025;28;20056;-62
2023/07/11 05:22:17;;;;;;;1.25;0.90;;;15.10;99.90;;;;;;5029166;28;20515;-61
2023/07/11 05:24:44;;;;;;;3.83;0.68;;;15.10;99.90;;;;;;5045801;28;20053;-62
2023/07/11 05:27:12;;;;;;;3.40;0.70;;;15.10;99.90;;;;;;5047519;28;20053;-61
2023/07/11 05:29:40;;;;;;;1.65;0.57;;;15.10;99.90;;;;;;5045869;28;20048;-61
2023/07/11 05:32:08;;;;;;;6.75;0.70;;;15.20;99.90;;;;;;5048193;28;20048;-62
2023/07/11 05:34:36;;;;;;;4.32;0.60;;;15.20;99.90;;;;;;5041635;28;20049;-62
2023/07/11 05:37:04;;;;;;;1.17;0.35;;;15.20;99.90;;;;;;5036174;28;20033;-61
2023/07/11 05:39:32;;;;;;;4.60;0.93;;;15.20;99.90;;;;;;5041675;28;20049;-59
2023/07/11 05:42:00;;;;;;;2.58;0.40;;;15.20;99.90;;;;;;5058476;28;20341;-62
2023/07/11 05:44:30;;;;;;;1.23;0.40;;;15.20;99.90;;;;;;5045280;28;20412;-61
2023/07/11 05:46:57;;;;;;;2.60;0.40;;;15.20;99.90;;;;;;5028762;28;20041;-59
2023/07/11 05:49:25;;;;;;;4.18;0.47;;;15.20;99.90;;;;;;5043096;28;20396;-58
2023/07/11 05:51:53;;;;;;;7.68;0.68;;;15.10;99.90;;;;;;5048257;28;20045;-58
2023/07/11 05:54:20;;;;;;;2.47;0.60;;;15.10;99.90;;;;;;5044119;28;20048;-59
2023/07/11 05:56:48;;;;;;;4.78;0.63;;;15.10;99.90;;;;;;5025493;28;20056;-59
2023/07/11 05:59:18;;;;;;;1.77;0.47;;;15.10;99.90;;;;;;5040200;28;20056;-60
2023/07/11 06:01:46;;;;;;;0.40;0.30;;;15.10;99.90;;;;;;5031140;28;20049;-61
2023/07/11 06:04:18;;;;;;;3.10;0.40;;;15.10;99.90;;;;;;5041345;28;20052;-59
2023/07/11 06:06:46;;;;;;;2.70;0.30;;;15.10;99.90;;;;;;5045342;28;20049;-59
2023/07/11 06:09:20;;;;;;;2.13;0.40;;;15.10;99.90;;;;;;5042486;28;20052;-60
2023/07/11 06:11:49;;;;;;;1.83;0.52;;;15.10;99.90;;;;;;5030347;28;20052;-59
2023/07/11 06:14:17;;;;;;;1.88;0.32;;;15.10;99.90;;;;;;5050926;28;20048;-59
2023/07/11 06:16:45;;;;;;;0.77;0.30;;;15.20;99.90;;;;;;5031407;28;20045;-59
2023/07/11 06:19:17;;;;;;;0.30;0.20;;;15.20;99.90;;;;;;5045602;28;20049;-58
2023/07/11 06:21:45;;;;;;;0.85;0.20;;;15.20;99.90;;;;;;5037678;28;20053;-60
2023/07/11 06:24:13;;;;;;;1.65;0.30;;;15.20;99.90;;;;;;5033148;28;20044;-59
2023/07/11 06:26:41;;;;;;;2.08;0.40;;;15.20;99.90;;;;;;5043808;28;20049;-61
2023/07/11 06:29:08;;;;;;;0.35;0.20;;;15.20;99.90;;;;;;5040845;28;20044;-59
2023/07/11 06:31:40;;;;;;;1.20;0.50;;;15.20;99.90;;;;;;5024670;28;20433;-60
2023/07/11 06:34:08;;;;;;;1.50;0.40;;;15.20;99.90;;;;;;5044568;28;20045;-59
2023/07/11 06:36:36;;;;;;;1.70;0.50;;;15.20;99.90;;;;;;5046890;28;20487;-59
2023/07/11 06:39:04;;;;;;;3.03;0.30;;;15.20;99.90;;;;;;5061904;28;20049;-58
2023/07/11 06:41:32;;;;;;;1.27;0.30;;;15.10;99.90;;;;;;5047367;28;20060;-59
2023/07/11 06:44:00;;;;;;;1.05;0.43;;;15.20;99.90;;;;;;5047889;28;20538;-59
2023/07/11 06:46:27;;;;;;;2.88;0.40;;;15.20;99.90;;;;;;5031120;28;20046;-60
2023/07/11 06:48:57;;;;;;;4.15;0.88;;;15.20;99.90;;;;;;5044316;28;20060;-58
2023/07/11 06:51:25;;;;;;;1.85;0.40;;;15.30;99.90;;;;;;5045938;28;20048;-60
2023/07/11 06:53:54;;;;;;;1.75;0.50;;;15.30;99.90;;;;;;5037333;28;20057;-60
2023/07/11 06:56:22;;;;;;;3.45;0.43;;;15.40;99.90;;;;;;5038147;28;20476;-58
2023/07/11 06:58:50;;;;;;;2.50;0.60;;;15.50;99.90;;;;;;5032050;28;20408;-58
2023/07/11 07:01:22;;;;;;;2.40;0.60;;;15.50;99.90;;;;;;5044253;28;20414;-58
2023/07/11 07:04:04;;;;;;;1.23;0.80;;;15.50;99.90;;;;;;5021515;28;20069;-59
2023/07/11 07:06:34;;;;;;;2.38;0.30;;;15.60;99.90;;;;;;5036587;28;20053;-59
2023/07/11 07:09:03;;;;;;;;;;;15.60;99.90;;;;;;5038326;28;20050;-59
2023/07/11 07:11:31;;;;;;;4.15;0.65;;;15.70;99.90;;;;;;5043288;28;19928;-60
2023/07/11 07:13:58;;;;;;;0.30;0.30;;;15.80;99.90;;;;;;5048810;28;20041;-60
2023/07/11 07:16:38;;;;;;;3.05;0.60;;;15.80;99.90;;;;;;5062869;28;20056;-59
2023/07/11 07:19:09;;;;;;;0.55;0.28;;;15.90;99.90;;;;;;5041861;28;20041;-60
2023/07/11 07:21:37;;;;;;;1.30;0.40;;;16.00;99.90;;;;;;5042226;28;20529;-60
2023/07/11 07:24:07;;;;;;;0.63;0.40;;;16.10;99.90;;;;;;5041642;28;20049;-61
2023/07/11 07:26:35;;;;;;;0.47;0.40;;;16.20;99.90;;;;;;5043667;28;20060;-62
2023/07/11 07:29:03;;;;;;;0.30;0.30;;;16.30;99.90;;;;;;5041833;28;20049;-58
2023/07/11 07:31:31;;;;;;;1.05;0.40;;;16.30;99.90;;;;;;5041883;28;20508;-62
2023/07/11 07:33:59;;;;;;;3.22;0.30;;;16.30;99.90;;;;;;5038758;28;20045;-58
2023/07/11 07:36:26;;;;;;;1.48;0.50;;;16.30;99.90;;;;;;5034343;28;20053;-61
2023/07/11 07:38:54;;;;;;;0.55;0.40;;;16.30;99.90;;;;;;5031412;28;20041;-60
2023/07/11 07:41:22;;;;;;;0.70;0.38;;;16.40;99.90;;;;;;5039771;28;20519;-63
2023/07/11 07:43:50;;;;;;;1.65;0.28;;;16.40;99.90;;;;;;5047456;28;20041;-60
2023/07/11 07:46:19;;;;;;;0.30;0.30;;;16.50;99.90;;;;;;5043011;28;20046;-60
2023/07/11 07:48:47;;;;;;;2.45;0.73;;;16.60;99.90;;;;;;5039488;28;20179;-60
2023/07/11 07:51:17;;;;;;;1.48;0.40;;;16.70;99.90;;;;;;5033125;28;20041;-60
2023/07/11 07:53:46;;;;;;;4.43;0.40;;;16.80;99.90;;;;;;5041144;28;20056;-60
2023/07/11 07:56:17;;;;;;;1.65;0.55;;;16.90;99.90;;;;;;5043008;28;20521;-60
2023/07/11 07:58:46;;;;;;;1.35;0.30;;;16.90;99.90;;;;;;5045933;28;20041;-62
2023/07/11 08:01:16;;;;;;;0.43;0.40;;;17.00;99.90;;;;;;5040167;28;20392;-61
2023/07/11 08:03:45;;;;;;;4.75;0.70;;;17.00;99.90;;;;;;5040934;28;20045;-62
2023/07/11 08:06:16;;;;;;;4.45;0.57;;;17.00;99.90;;;;;;5031725;28;20064;-61
2023/07/11 08:08:46;;;;;;;1.60;0.70;;;17.10;99.90;;;;;;5048608;28;20052;-64
2023/07/11 08:11:15;;;;;;;3.58;0.28;;;17.10;99.90;;;;;;5038927;28;20052;-63
2023/07/11 08:13:44;;;;;;;0.98;0.50;;;17.10;99.90;;;;;;5036134;28;20045;-63
2023/07/11 08:16:15;;;;;;;2.13;0.40;;;17.10;99.90;;;;;;5035207;28;20041;-60
2023/07/11 08:18:58;;;;;;;2.10;0.50;;;17.20;99.90;;;;;;5032888;28;20046;-60
2023/07/11 08:21:26;;;;;;;2.33;0.50;;;17.30;99.90;;;;;;5039444;28;20049;-60
2023/07/11 08:23:53;;;;;;;2.83;0.50;;;17.40;99.90;;;;;;5035361;28;20052;-61
2023/07/11 08:26:22;;;;;;;0.85;0.40;;;17.50;99.90;;;;;;5028305;28;20057;-60
2023/07/11 08:28:51;;;;;;;1.80;0.52;;;17.60;99.90;;;;;;5037931;28;20592;-61
2023/07/11 08:31:20;;;;;;;1.40;0.60;;;17.60;99.90;;;;;;5028256;28;20344;-61
2023/07/11 08:33:49;;;;;;;0.95;0.40;;;17.60;99.90;;;;;;5048417;28;20060;-61
2023/07/11 08:36:16;;;;;;;2.42;0.80;;;17.70;99.90;;;;;;5034157;28;20052;-61
2023/07/11 08:38:47;;;;;;;4.32;0.50;;;17.70;99.90;;;;;;5045742;28;20037;-60
2023/07/11 08:41:38;;;;;;;1.85;0.65;;;17.80;99.90;;;;;;5043155;28;20045;-63
2023/07/11 08:44:33;;;;;;;1.98;0.68;;;17.80;99.90;;;;;;5041200;28;20044;-60
2023/07/11 08:47:18;;;;;;;1.50;0.63;;;17.80;99.90;;;;;;5032984;28;20048;-59
2023/07/11 08:50:00;;;;;;;3.50;0.73;;;17.80;99.90;;;;;;5033655;28;20061;-60
2023/07/11 08:52:30;;;;;;;1.10;0.63;;;17.80;99.90;;;;;;5038461;28;20049;-61
2023/07/11 08:55:27;;;;;;;2.72;0.68;;;17.70;99.90;;;;;;5041982;28;20622;-61
2023/07/11 08:58:18;;;;;;;3.72;0.70;;;17.80;99.90;;;;;;5029195;28;20060;-60
2023/07/11 09:00:50;;;;;;;4.07;0.77;;;17.80;99.90;;;;;;5032891;28;20048;-60
2023/07/11 09:03:38;;;;;;;4.85;0.80;;;17.90;99.90;;;;;;5034072;28;20500;-62
2023/07/11 09:06:11;;;;;;;2.38;0.77;;;17.80;99.90;;;;;;5037514;28;20614;-60
2023/07/11 09:08:43;;;;;;;4.45;1.02;;;17.90;99.90;;;;;;5030213;28;20504;-60
2023/07/11 09:11:22;;;;;;;5.75;0.63;;;18.00;99.90;;;;;;5040168;28;20512;-59
2023/07/11 09:13:50;;;;;;;2.10;0.90;;;17.90;99.90;;;;;;5032493;28;20038;-60
2023/07/11 09:16:36;;;;;;;3.00;1.00;;;17.90;99.90;;;;;;5028108;28;20054;-59
2023/07/11 09:19:04;;;;;;;2.88;0.90;;;17.90;99.90;;;;;;5038918;28;20526;-60
2023/07/11 09:21:40;;;;;;;1.83;0.77;;;17.90;99.90;;;;;;5038439;28;20041;-59
2023/07/11 09:24:31;;;;;;;3.50;0.88;;;17.90;99.90;;;;;;5045450;28;20045;-59
2023/07/11 09:27:05;;;;;;;5.10;1.20;;;17.90;99.90;;;;;;5039425;28;20509;-62
2023/07/11 09:29:33;;;;;;;5.38;1.10;;;17.90;99.90;;;;;;5040930;28;20635;-58
2023/07/11 09:32:03;;;;;;;3.08;0.95;;;18.00;99.90;;;;;;5039817;28;20036;-59
2023/07/11 09:34:37;;;;;;;5.68;1.17;;;18.00;99.90;;;;;;5038502;28;20043;-58
2023/07/11 09:37:20;;;;;;;5.22;1.25;;;18.10;99.90;;;;;;5035738;28;20045;-62
2023/07/11 09:39:58;;;;;;;5.32;0.98;;;18.20;99.90;;;;;;5028028;28;20044;-58
2023/07/11 09:42:40;;;;;;;4.53;1.40;;;18.30;99.90;;;;;;5034919;28;20049;-59
2023/07/11 09:45:11;;;;;;;7.38;0.95;;;18.40;99.90;;;;;;5048680;28;20045;-60
2023/07/11 09:47:41;;;;;;;6.40;1.17;;;18.50;99.90;;;;;;5031842;28;20148;-60
2023/07/11 09:50:45;;;;;;;2.28;0.95;;;18.50;99.90;;;;;;5028837;28;20037;-60
2023/07/11 09:53:33;;;;;;;2.75;0.90;;;18.60;99.90;;;;;;5036940;28;20064;-60
2023/07/11 09:56:03;;;;;;;3.42;1.08;;;18.60;99.90;;;;;;5044802;28;20496;-59
2023/07/11 09:58:34;;;;;;;4.55;0.98;;;18.60;99.90;;;;;;5039506;28;20061;-59
2023/07/11 10:01:07;;;;;;;5.07;1.20;;;18.70;99.90;;;;;;5035878;28;20048;-59
2023/07/11 10:03:35;;;;;;;7.70;0.98;;;18.70;99.90;;;;;;5035592;28;20052;-59
2023/07/11 10:06:04;;;;;;;7.55;2.17;;;18.80;99.90;;;;;;5038291;28;20068;-60
2023/07/11 10:08:43;;;;;;;3.40;1.15;;;18.70;99.90;;;;;;5039475;28;20508;-61
2023/07/11 10:11:13;;;;;;;5.40;1.60;;;18.70;99.90;;;;;;5029320;28;20061;-63
2023/07/11 10:13:41;;;;;;;4.53;1.50;;;18.70;99.90;;;;;;5038553;28;20041;-62
2023/07/11 10:16:19;;;;;;;9.10;2.13;;;18.80;99.90;;;;;;5052207;28;20049;-61
2023/07/11 10:18:47;;;;;;;5.68;1.25;;;18.80;99.90;;;;;;5036863;28;20045;-58
2023/07/11 10:21:31;;;;;;;7.13;1.92;;;18.80;99.90;;;;;;5034058;28;20054;-60
2023/07/11 10:24:16;;;;;;;4.47;1.15;;;18.80;99.90;;;;;;5030081;28;20395;-59
2023/07/11 10:26:47;;;;;;;11.85;1.80;;;18.70;99.90;;;;;;5044895;28;20053;-59
2023/07/11 10:29:21;;;;;;;5.22;1.50;;;18.60;99.90;;;;;;5042933;28;20515;-60
2023/07/11 10:32:06;;;;;;;7.63;1.60;;;18.50;99.90;;;;;;5038955;28;20041;-60
2023/07/11 10:34:53;;;;;;;3.65;1.40;;;18.50;99.90;;;;;;5044370;28;20053;-59
2023/07/11 10:37:34;;;;;;;5.55;1.80;;;18.40;99.90;;;;;;5032472;28;20058;-60
2023/07/11 10:40:09;;;;;;;9.27;2.10;;;18.40;99.90;;;;;;5035227;28;20542;-59
2023/07/11 10:43:15;;;;;;;8.40;2.15;;;18.30;99.90;;;;;;5045118;28;20064;-59
2023/07/11 10:45:45;;;;;;;5.68;2.30;;;18.20;99.90;;;;;;5051936;28;20536;-59
2023/07/11 10:48:38;;;;;;;;;;;18.30;99.90;;;;;;5046387;28;20052;-59
2023/07/11 10:51:15;;;;;;;5.90;1.70;;;18.40;99.90;;;;;;5045361;28;19928;-59
2023/07/11 10:54:05;;;;;;;6.65;2.47;;;18.60;99.90;;;;;;5041416;28;20061;-60
2023/07/11 10:56:39;;;;;;;6.45;2.38;;;18.70;99.90;;;;;;5041169;28;20053;-59
2023/07/11 10:59:12;;;;;;;5.28;2.20;;;18.80;99.90;;;;;;5042487;28;20037;-60
2023/07/11 11:01:54;;;;;;;6.22;2.35;;;18.80;99.90;;;;;;5045898;28;20048;-60
2023/07/11 11:04:37;;;;;;;7.60;2.03;;;18.90;99.90;;;;;;5041092;28;20044;-60
2023/07/11 11:07:23;;;;;;;5.30;1.90;;;18.90;99.90;;;;;;5033673;28;20076;-61
2023/07/11 11:10:04;;;;;;;5.03;2.00;;;18.90;99.90;;;;;;5033630;28;20053;-59
2023/07/11 11:12:35;;;;;;;5.78;2.22;;;18.90;99.90;;;;;;5051396;28;20048;-59
2023/07/11 11:15:26;;;;;;;6.80;2.65;;;18.80;99.90;;;;;;5036366;28;20053;-59
2023/07/11 11:18:17;;;;;;;7.15;2.15;;;18.80;99.90;;;;;;5043495;28;20048;-60
2023/07/11 11:20:59;;;;;;;4.35;1.90;;;18.90;99.90;;;;;;5045908;28;20060;-60
2023/07/11 11:24:22;;;;;;;5.70;1.70;;;18.80;99.90;;;;;;5050876;28;20681;-59
2023/07/11 11:27:04;;;;;;;4.60;1.50;;;18.80;99.90;;;;;;5041522;28;20045;-59
2023/07/11 11:29:51;;;;;;;5.70;1.55;;;18.80;99.90;;;;;;5048830;28;20041;-59
2023/07/11 11:32:24;;;;;;;6.38;1.98;;;18.80;99.90;;;;;;5030442;28;20045;-59
2023/07/11 11:35:29;;;;;;;3.15;1.48;;;18.90;99.90;;;;;;5042562;28;20057;-61
2023/07/11 11:38:04;;;;;;;3.65;1.33;;;19.10;99.90;;;;;;5042231;28;20648;-60
2023/07/11 11:40:37;;;;;;;6.85;1.63;;;19.10;99.90;;;;;;5035290;28;20497;-59
2023/07/11 11:43:10;;;;;;;6.13;1.58;;;19.20;99.90;;;;;;5044528;28;20063;-59
2023/07/11 11:45:42;;;;;;;4.55;1.45;;;19.20;99.90;;;;;;5061475;28;20396;-59
2023/07/11 11:48:31;;;;;;;27.70;2.15;;;19.30;99.90;;;;;;5040826;28;20049;-60
2023/07/11 11:51:06;;;;;;;6.93;1.73;;;19.30;99.90;;;;;;5035885;28;20063;-60
2023/07/11 11:54:01;;;;;;;4.93;1.40;;;19.30;99.90;;;;;;5039999;28;20049;-59
2023/07/11 11:56:29;;;;;;;4.68;1.30;;;19.50;99.90;;;;;;5040829;28;20041;-60
2023/07/11 11:59:04;;;;;;;5.68;1.30;;;19.50;99.90;;;;;;5038279;28;20052;-60
2023/07/11 12:01:35;;;;;;;2.58;1.73;;;19.60;99.90;;;;;;5040722;28;20380;-60
2023/07/11 12:04:29;;;;;;;2.58;1.27;;;19.80;99.90;;;;;;5045455;28;20040;-59
2023/07/11 12:07:10;;;;;;;4.57;1.48;;;20.00;99.90;;;;;;5035811;28;20050;-58
2023/07/11 12:09:53;;;;;;;7.43;1.70;;;20.10;99.90;;;;;;5051465;28;20052;-59
2023/07/11 12:12:32;;;;;;;6.38;1.20;;;20.30;99.90;;;;;;5043773;28;20049;-61
2023/07/11 12:15:18;;;;;;;2.75;1.30;;;20.30;99.90;;;;;;5051390;28;20064;-63
2023/07/11 12:17:50;;;;;;;4.75;1.00;;;20.30;99.90;;;;;;5035918;28;20053;-59
2023/07/11 12:20:26;;;;;;;5.80;1.67;;;20.20;99.90;;;;;;5038952;28;20044;-60
2023/07/11 12:22:54;;;;;;;2.22;1.27;;;20.00;99.90;;;;;;5037178;28;20420;-63
2023/07/11 12:25:27;;;;;;;8.82;1.83;;;19.80;99.90;;;;;;5043404;28;20048;-62
2023/07/11 12:28:00;;;;;;;5.65;1.40;;;19.60;99.90;;;;;;5037498;28;20044;-63
2023/07/11 12:30:37;;;;;;;5.68;1.30;;;19.40;99.90;;;;;;5028673;28;20133;-62
2023/07/11 12:33:30;;;;;;;9.98;1.67;;;19.20;99.90;;;;;;5034096;28;20463;-61
2023/07/11 12:36:26;;;;;;;4.93;1.13;;;18.70;99.90;;;;;;5056646;28;20041;-58
2023/07/11 12:39:01;;;;;;;5.05;1.48;;;18.00;99.90;;;;;;5047076;28;20041;-58
2023/07/11 12:41:37;;;;;;;7.32;1.50;;;17.30;99.90;;;;;;5031394;28;20065;-58
2023/07/11 12:44:14;;;;;;;9.52;2.80;;;16.80;99.90;;;;;;5043659;28;20044;-57
2023/07/11 12:46:46;;;;;;;6.75;1.70;;;16.50;99.90;;;;;;5044045;28;20045;-57
2023/07/11 12:49:22;;;;;;;3.20;1.40;;;16.30;99.90;;;;;;5042471;28;20049;-56
2023/07/11 12:51:49;;;;;;;6.57;2.30;;;16.20;99.90;;;;;;5033021;28;20053;-56
2023/07/11 12:54:20;;;;;;;6.68;1.80;;;16.20;99.90;;;;;;5049552;28;20513;-56
2023/07/11 12:56:50;;;;;;;4.70;1.55;;;16.20;99.90;;;;;;5032331;28;20736;-56
2023/07/11 12:59:22;;;;;;;;;;;16.20;99.90;;;;;;5045048;28;20049;-56
2023/07/11 13:01:52;;;;;;;5.22;1.33;;;16.10;99.90;;;;;;5030876;28;19928;-56
2023/07/11 13:04:44;;;;;;;3.78;1.70;;;16.10;99.90;;;;;;5035066;28;20049;-56
2023/07/11 13:07:19;;;;;;;10.38;2.80;;;16.10;99.90;;;;;;5043422;28;20044;-58
2023/07/11 13:09:50;;;;;;;4.80;2.17;;;16.20;99.90;;;;;;5044663;28;20044;-57
2023/07/11 13:12:22;;;;;;;5.10;1.83;;;16.30;99.90;;;;;;5040077;28;20041;-58
2023/07/11 13:14:52;;;;;;;8.13;2.67;;;16.30;99.90;;;;;;5045871;28;20060;-59